Clever, Missouri
Current Conditions -  °F | °C
As of 4:52 PM on Wednesday 26 Nov 2014 (Local Time) from KSGF Reporting Station
Overcast Overcast  
Wind Chill:   Ceiling: 7000
Heat Index:   Visibility: 10mi
Dew Point: -4°   Wind: 17mph
Humidity: 47%   Direction: 290°WNW
Pressure: 30.09"   Gusts: 25mph
Location:  37.03°N, 93.47°W
Report Text: KSGF 262252Z 29015G22KT 10SM SCT050 OVC070 07/M04 A3009 RMK AO2 PK WND 28027/2216 SLP195 T00671039
Loading
Personal Weather Stations






























Interactive Weather Map New forecast layout! Learn more

10-Day Weather Forecast

Advertisements
Track Severe Weather on mobile